Aviation Digital Data Service (ADDS)

Output produced by METARs form (1756 UTC 30 August 2015)
found at http://www.aviationweather.gov/adds/metars/
 
KCMI 301725Z 3018/3118 20005KT P6SM BKN035 
     FM310100 17004KT P6SM SCT250 
     FM310600 18004KT 4SM BR SCT250 
     FM311100 19005KT 2SM BR FEW250 
     FM311500 20008KT 5SM HZ SCT250